Time;durP1;ratioP1;P1;durP2;ratioP2;P2;SDS_P1;SDS_P2;PMS_P1;PMS_P2;Temp;Humidity;BMP_temperature;BMP_pressure;BME280_temperature;BME280_humidity;BME280_pressure;Samples;Min_cycle;Max_cycle;Signal;HPM_P1;HPM_P2
2023/03/16 00:03:24;;;;;;;11.47;4.47;;;;;;;;;;10563699;28;20031;-79
2023/03/16 00:08:34;;;;;;;9.30;3.70;;;;;;;;;;10559842;28;20435;-78
2023/03/16 00:13:37;;;;;;;11.77;3.80;;;;;;;;;;10555320;27;20042;-81
2023/03/16 00:24:03;;;;;;;7.83;3.47;;;;;;;;;;10570499;28;20139;-81
2023/03/16 00:29:07;;;;;;;8.00;3.17;;;;;;;;;;10558290;28;20032;-80
2023/03/16 00:34:12;;;;;;;8.07;3.90;;;;;;;;;;10560746;28;20096;-78
2023/03/16 00:39:16;;;;;;;9.93;3.70;;;;;;;;;;10555667;28;20042;-78
2023/03/16 00:44:20;;;;;;;;;;;;;;;;;;10557994;28;20375;-77
2023/03/16 00:49:23;;;;;;;8.82;3.63;;;;;;;;;;10552796;28;19990;-78
2023/03/16 00:54:29;;;;;;;8.77;4.20;;;;;;;;;;10527897;28;20493;-78
2023/03/16 00:59:35;;;;;;;9.07;4.03;;;;;;;;;;10548566;28;20112;-79
2023/03/16 01:04:40;;;;;;;9.03;4.23;;;;;;;;;;10545356;28;20044;-78
2023/03/16 01:09:45;;;;;;;12.33;4.77;;;;;;;;;;10560687;28;20130;-78
2023/03/16 01:14:48;;;;;;;11.13;4.93;;;;;;;;;;10547283;28;20118;-77
2023/03/16 01:19:52;;;;;;;14.57;4.70;;;;;;;;;;10550987;27;20043;-78
2023/03/16 01:24:57;;;;;;;9.03;4.30;;;;;;;;;;10553410;28;20163;-79
2023/03/16 01:30:01;;;;;;;7.90;4.10;;;;;;;;;;10534843;28;20067;-79
2023/03/16 01:35:05;;;;;;;10.60;4.60;;;;;;;;;;10534205;28;20149;-79
2023/03/16 01:40:11;;;;;;;12.30;4.80;;;;;;;;;;10555986;28;20051;-79
2023/03/16 01:45:33;;;;;;;11.67;4.80;;;;;;;;;;10557782;27;20495;-80
2023/03/16 01:50:37;;;;;;;14.40;5.30;;;;;;;;;;10564669;27;20534;-79
2023/03/16 01:55:42;;;;;;;10.63;5.13;;;;;;;;;;10541413;28;20039;-78
2023/03/16 02:00:46;;;;;;;12.23;4.97;;;;;;;;;;10554718;27;20132;-78
2023/03/16 02:05:52;;;;;;;12.68;5.28;;;;;;;;;;10542159;27;20519;-78
2023/03/16 02:10:57;;;;;;;14.33;5.60;;;;;;;;;;10518718;27;20036;-78
2023/03/16 02:16:06;;;;;;;13.43;5.60;;;;;;;;;;10553906;28;20473;-77
2023/03/16 02:21:15;;;;;;;10.20;4.73;;;;;;;;;;10551278;27;20042;-77
2023/03/16 02:26:28;;;;;;;12.30;5.03;;;;;;;;;;10533939;28;20039;-78
2023/03/16 02:31:32;;;;;;;18.23;5.37;;;;;;;;;;10555498;28;20137;-79
2023/03/16 02:36:37;;;;;;;17.47;6.50;;;;;;;;;;10550720;27;20127;-78
2023/03/16 02:41:41;;;;;;;12.00;5.17;;;;;;;;;;10546786;28;20040;-78
2023/03/16 02:46:46;;;;;;;14.43;5.40;;;;;;;;;;10548005;27;20056;-80
2023/03/16 02:51:50;;;;;;;13.93;4.77;;;;;;;;;;10548033;27;20069;-78
2023/03/16 02:56:52;;;;;;;15.53;5.57;;;;;;;;;;10541897;28;20051;-77
2023/03/16 03:01:57;;;;;;;13.70;4.83;;;;;;;;;;10558781;28;20067;-77
2023/03/16 03:07:03;;;;;;;12.80;5.40;;;;;;;;;;10551497;27;20122;-78
2023/03/16 03:12:10;;;;;;;14.10;5.90;;;;;;;;;;10535788;28;20036;-79
2023/03/16 03:17:30;;;;;;;14.83;6.30;;;;;;;;;;10547537;27;20040;-78
2023/03/16 03:22:34;;;;;;;12.07;4.97;;;;;;;;;;10546166;27;20520;-78
2023/03/16 03:27:37;;;;;;;13.00;5.23;;;;;;;;;;10523605;28;20040;-78
2023/03/16 03:32:43;;;;;;;11.23;4.50;;;;;;;;;;10550968;28;20035;-78
2023/03/16 03:37:47;;;;;;;14.37;5.10;;;;;;;;;;10547819;28;20043;-78
2023/03/16 03:42:51;;;;;;;16.10;4.80;;;;;;;;;;10555520;28;20063;-79
2023/03/16 03:47:55;;;;;;;12.85;5.65;;;;;;;;;;10558281;27;20130;-79
2023/03/16 03:52:59;;;;;;;9.20;4.07;;;;;;;;;;10548371;28;20135;-78
2023/03/16 03:58:03;;;;;;;16.10;6.10;;;;;;;;;;10560069;28;20260;-80
2023/03/16 04:03:07;;;;;;;;;;;;;;;;;;10568980;28;20108;-79
2023/03/16 04:08:22;;;;;;;14.47;4.47;;;;;;;;;;10585123;28;19919;-80
2023/03/16 04:13:26;;;;;;;12.37;5.07;;;;;;;;;;10571317;27;20301;-78
2023/03/16 04:18:29;;;;;;;12.37;4.83;;;;;;;;;;10566932;28;20042;-80
2023/03/16 04:23:34;;;;;;;15.13;4.68;;;;;;;;;;10553397;28;20027;-81
2023/03/16 04:28:37;;;;;;;15.23;5.43;;;;;;;;;;10568009;28;20035;-78
2023/03/16 04:33:41;;;;;;;17.63;6.10;;;;;;;;;;10555120;28;20042;-82
2023/03/16 04:38:45;;;;;;;20.00;6.90;;;;;;;;;;10559522;28;20100;-79
2023/03/16 04:43:50;;;;;;;7.30;3.23;;;;;;;;;;10553766;28;20028;-78
2023/03/16 04:48:53;;;;;;;8.93;3.83;;;;;;;;;;10562888;27;20122;-80
2023/03/16 04:53:58;;;;;;;12.60;4.93;;;;;;;;;;10567540;27;20025;-80
2023/03/16 04:59:04;;;;;;;13.40;4.90;;;;;;;;;;10552558;27;20040;-79
2023/03/16 05:04:07;;;;;;;18.37;6.83;;;;;;;;;;10538371;28;20493;-81
2023/03/16 05:09:19;;;;;;;15.17;5.13;;;;;;;;;;10571206;27;20366;-79
2023/03/16 05:14:22;;;;;;;10.77;4.03;;;;;;;;;;10544989;28;20044;-79
2023/03/16 05:19:27;;;;;;;13.03;5.23;;;;;;;;;;10554161;27;20040;-80
2023/03/16 05:24:32;;;;;;;12.50;4.23;;;;;;;;;;10562098;27;20044;-77
2023/03/16 05:29:35;;;;;;;15.33;6.80;;;;;;;;;;10566573;27;20138;-78
2023/03/16 05:34:42;;;;;;;15.18;6.30;;;;;;;;;;10561994;27;20043;-80
2023/03/16 05:39:46;;;;;;;10.27;3.83;;;;;;;;;;10545815;27;20127;-82
2023/03/16 05:44:50;;;;;;;10.87;4.43;;;;;;;;;;10544001;28;20042;-79
2023/03/16 05:49:53;;;;;;;15.25;5.07;;;;;;;;;;10562814;27;20677;-78
2023/03/16 05:55:00;;;;;;;7.50;2.33;;;;;;;;;;10567646;28;20075;-79
2023/03/16 06:00:11;;;;;;;8.17;3.77;;;;;;;;;;10538372;27;20032;-79
2023/03/16 06:05:16;;;;;;;15.47;7.90;;;;;;;;;;10521758;28;20505;-78
2023/03/16 06:10:22;;;;;;;15.18;5.53;;;;;;;;;;10567621;27;20078;-81
2023/03/16 06:15:29;;;;;;;12.50;6.00;;;;;;;;;;10542332;28;20044;-78
2023/03/16 06:20:35;;;;;;;8.53;3.50;;;;;;;;;;10570044;27;20040;-76
2023/03/16 06:25:40;;;;;;;13.10;5.97;;;;;;;;;;10539793;27;20046;-77
2023/03/16 06:30:43;;;;;;;11.80;5.33;;;;;;;;;;10532251;28;20488;-76
2023/03/16 06:35:47;;;;;;;6.63;3.43;;;;;;;;;;10541295;27;20048;-77
2023/03/16 06:40:53;;;;;;;11.73;3.90;;;;;;;;;;10553090;27;20069;-76
2023/03/16 06:45:57;;;;;;;8.63;3.58;;;;;;;;;;10542241;27;20468;-79
2023/03/16 06:51:06;;;;;;;12.63;4.35;;;;;;;;;;10552656;28;20036;-80
2023/03/16 06:56:12;;;;;;;6.65;4.00;;;;;;;;;;10541612;28;20556;-79
2023/03/16 07:01:15;;;;;;;7.60;3.92;;;;;;;;;;10537248;27;20135;-78
2023/03/16 07:06:19;;;;;;;12.18;4.88;;;;;;;;;;10559399;28;20074;-77
2023/03/16 07:11:24;;;;;;;7.55;4.40;;;;;;;;;;10544329;27;20048;-79
2023/03/16 07:16:28;;;;;;;11.55;5.35;;;;;;;;;;10551389;27;20036;-77
2023/03/16 07:21:37;;;;;;;11.00;4.80;;;;;;;;;;10555208;27;20539;-77
2023/03/16 07:26:45;;;;;;;8.68;3.85;;;;;;;;;;10530621;28;20173;-80
2023/03/16 07:31:58;;;;;;;11.60;5.43;;;;;;;;;;10553836;28;20119;-79
2023/03/16 07:37:04;;;;;;;12.17;4.50;;;;;;;;;;10569202;28;20032;-79
2023/03/16 07:42:09;;;;;;;10.32;4.05;;;;;;;;;;10554647;28;20651;-80
2023/03/16 07:47:14;;;;;;;9.40;5.15;;;;;;;;;;10536897;28;20040;-81
2023/03/16 07:52:18;;;;;;;9.03;4.30;;;;;;;;;;10568787;28;20040;-81
2023/03/16 07:57:25;;;;;;;5.93;2.95;;;;;;;;;;10550776;27;20500;-80
2023/03/16 08:02:28;;;;;;;6.43;2.13;;;;;;;;;;10561915;27;20039;-81
2023/03/16 08:07:32;;;;;;;6.75;2.55;;;;;;;;;;10544730;28;20036;-80
2023/03/16 08:12:37;;;;;;;8.13;3.63;;;;;;;;;;10564500;28;20043;-81
2023/03/16 08:17:41;;;;;;;8.77;4.00;;;;;;;;;;10542621;28;20032;-80
2023/03/16 08:22:58;;;;;;;7.05;3.53;;;;;;;;;;10555809;28;20048;-80
2023/03/16 08:28:04;;;;;;;6.30;1.75;;;;;;;;;;10558380;28;20142;-81
2023/03/16 08:33:19;;;;;;;11.38;4.47;;;;;;;;;;10558275;28;20044;-80
2023/03/16 08:38:27;;;;;;;8.27;2.90;;;;;;;;;;10558717;28;21368;-81
2023/03/16 08:43:31;;;;;;;15.07;6.10;;;;;;;;;;10565060;28;20036;-80
2023/03/16 08:48:35;;;;;;;9.18;3.95;;;;;;;;;;10568464;28;20451;-82
2023/03/16 08:53:38;;;;;;;;;;;;;;;;;;10558840;28;20342;-81
2023/03/16 08:58:44;;;;;;;8.32;3.95;;;;;;;;;;10595882;28;19927;-81
2023/03/16 09:03:47;;;;;;;9.88;4.25;;;;;;;;;;10610844;28;20043;-82
2023/03/16 09:08:52;;;;;;;10.52;3.95;;;;;;;;;;10596276;28;20023;-81
2023/03/16 09:13:57;;;;;;;11.10;5.07;;;;;;;;;;10571654;28;20159;-83
2023/03/16 09:19:01;;;;;;;7.68;4.13;;;;;;;;;;10562435;28;20039;-81
2023/03/16 09:24:06;;;;;;;10.32;5.63;;;;;;;;;;10566633;28;20192;-82
2023/03/16 09:29:13;;;;;;;10.15;6.57;;;;;;;;;;10526596;28;20044;-83
2023/03/16 09:34:17;;;;;;;10.57;6.75;;;;;;;;;;10568742;28;20031;-83
2023/03/16 09:39:21;;;;;;;9.70;6.32;;;;;;;;;;10564040;28;20040;-83
2023/03/16 09:44:33;;;;;;;7.18;5.18;;;;;;;;;;10570852;27;20387;-82
2023/03/16 09:49:41;;;;;;;7.72;5.68;;;;;;;;;;10556848;28;20480;-82
2023/03/16 09:54:49;;;;;;;8.68;6.45;;;;;;;;;;10563257;27;20047;-81
2023/03/16 09:59:55;;;;;;;9.15;6.25;;;;;;;;;;10553610;27;20043;-82
2023/03/16 10:05:08;;;;;;;8.25;5.80;;;;;;;;;;10568710;27;20032;-84
2023/03/16 10:10:19;;;;;;;9.05;6.40;;;;;;;;;;10573647;28;20043;-83
2023/03/16 10:15:27;;;;;;;10.23;6.80;;;;;;;;;;10567595;28;20111;-83
2023/03/16 10:20:32;;;;;;;9.73;6.95;;;;;;;;;;10547603;28;20365;-83
2023/03/16 10:25:43;;;;;;;10.60;6.13;;;;;;;;;;10556090;28;20062;-83
2023/03/16 10:30:50;;;;;;;10.43;6.47;;;;;;;;;;10561371;27;20086;-82
2023/03/16 10:35:55;;;;;;;10.43;6.95;;;;;;;;;;10572554;27;20059;-82
2023/03/16 10:41:00;;;;;;;8.68;5.63;;;;;;;;;;10559421;28;20047;-82
2023/03/16 10:46:10;;;;;;;9.82;6.55;;;;;;;;;;10547846;28;20040;-83
2023/03/16 10:51:18;;;;;;;7.40;5.50;;;;;;;;;;10530711;28;20071;-83
2023/03/16 10:56:24;;;;;;;10.82;5.95;;;;;;;;;;10562091;28;20046;-83
2023/03/16 11:01:34;;;;;;;8.85;5.95;;;;;;;;;;10547364;28;20035;-82
2023/03/16 11:06:48;;;;;;;7.13;5.40;;;;;;;;;;10570861;27;20046;-83
2023/03/16 11:11:52;;;;;;;12.38;6.97;;;;;;;;;;10550513;28;20043;-82
2023/03/16 11:17:03;;;;;;;11.20;7.50;;;;;;;;;;10546838;27;20055;-82
2023/03/16 11:22:12;;;;;;;12.73;8.45;;;;;;;;;;10552116;27;20074;-83
2023/03/16 11:27:20;;;;;;;10.45;7.07;;;;;;;;;;10548033;27;20039;-82
2023/03/16 11:32:31;;;;;;;9.98;6.20;;;;;;;;;;10552366;28;20115;-82
2023/03/16 11:37:41;;;;;;;8.40;5.82;;;;;;;;;;10552644;28;20465;-84
2023/03/16 11:42:49;;;;;;;7.95;5.20;;;;;;;;;;10552430;28;20063;-83
2023/03/16 11:48:11;;;;;;;7.28;4.15;;;;;;;;;;10562915;27;20090;-83
2023/03/16 11:53:30;;;;;;;9.45;5.20;;;;;;;;;;10553708;27;20065;-84
2023/03/16 11:58:43;;;;;;;6.88;5.07;;;;;;;;;;10568932;27;20070;-83
2023/03/16 12:04:04;;;;;;;6.70;5.03;;;;;;;;;;10548657;27;20078;-82
2023/03/16 12:15:00;;;;;;;8.40;5.80;;;;;;;;;;10548183;28;20106;-84
2023/03/16 12:20:09;;;;;;;8.40;5.80;;;;;;;;;;10577343;28;20543;-85
2023/03/16 12:25:18;;;;;;;8.50;5.72;;;;;;;;;;10558740;28;20115;-83
2023/03/16 12:30:34;;;;;;;6.05;4.38;;;;;;;;;;10578495;28;20047;-83
2023/03/16 12:35:43;;;;;;;6.25;5.00;;;;;;;;;;10572777;28;20063;-82
2023/03/16 12:40:56;;;;;;;5.28;3.03;;;;;;;;;;10559648;28;20035;-83
2023/03/16 12:46:09;;;;;;;5.38;4.20;;;;;;;;;;10579354;28;20055;-84
2023/03/16 12:51:16;;;;;;;6.40;4.43;;;;;;;;;;10570832;28;20046;-82
2023/03/16 12:56:28;;;;;;;6.35;4.00;;;;;;;;;;10556474;28;20102;-83
2023/03/16 13:01:38;;;;;;;5.22;3.33;;;;;;;;;;10567183;28;20035;-83
2023/03/16 13:06:49;;;;;;;5.93;3.20;;;;;;;;;;10568279;28;20473;-83
2023/03/16 13:11:55;;;;;;;5.72;3.83;;;;;;;;;;10556446;28;20130;-82
2023/03/16 13:17:05;;;;;;;4.82;3.40;;;;;;;;;;10545270;28;20046;-82
2023/03/16 13:22:27;;;;;;;12.17;5.97;;;;;;;;;;10558122;28;20035;-82
2023/03/16 13:27:34;;;;;;;7.32;4.30;;;;;;;;;;10565246;27;20099;-82
2023/03/16 13:32:39;;;;;;;8.48;3.92;;;;;;;;;;10577474;28;20085;-83
2023/03/16 13:37:43;;;;;;;7.25;4.65;;;;;;;;;;10558324;28;20402;-84
2023/03/16 13:42:53;;;;;;;5.30;3.30;;;;;;;;;;10576639;27;20062;-81
2023/03/16 13:48:00;;;;;;;3.25;2.63;;;;;;;;;;10587469;28;20058;-83
2023/03/16 13:53:04;;;;;;;4.53;2.53;;;;;;;;;;10584751;28;20215;-81
2023/03/16 13:58:20;;;;;;;6.75;2.58;;;;;;;;;;10588167;27;20122;-83
2023/03/16 14:03:31;;;;;;;3.17;2.40;;;;;;;;;;10586341;27;20285;-82
2023/03/16 14:08:38;;;;;;;2.17;1.60;;;;;;;;;;10558690;28;20044;-82
2023/03/16 14:13:42;;;;;;;3.28;2.15;;;;;;;;;;10558977;27;20142;-81
2023/03/16 14:18:48;;;;;;;3.45;2.20;;;;;;;;;;10560570;28;20036;-82
2023/03/16 14:23:58;;;;;;;3.35;2.20;;;;;;;;;;10578108;27;20039;-83
2023/03/16 14:29:05;;;;;;;4.72;2.00;;;;;;;;;;10583313;27;20028;-83
2023/03/16 14:34:28;;;;;;;3.67;1.88;;;;;;;;;;10569545;28;20481;-83
2023/03/16 14:39:32;;;;;;;3.40;2.13;;;;;;;;;;10562279;27;20028;-81
2023/03/16 14:44:37;;;;;;;4.40;1.98;;;;;;;;;;10566351;27;20043;-81
2023/03/16 14:49:54;;;;;;;2.78;1.77;;;;;;;;;;10582777;27;20055;-82
2023/03/16 14:54:58;;;;;;;4.72;2.03;;;;;;;;;;10565132;27;20051;-81
2023/03/16 15:00:09;;;;;;;3.97;2.15;;;;;;;;;;10579975;27;20035;-82
2023/03/16 15:05:20;;;;;;;5.00;2.38;;;;;;;;;;10568153;27;20036;-82
2023/03/16 15:10:27;;;;;;;2.58;1.80;;;;;;;;;;10580088;27;20147;-82
2023/03/16 15:15:32;;;;;;;3.25;2.00;;;;;;;;;;10569259;27;20523;-80
2023/03/16 15:20:42;;;;;;;4.22;2.03;;;;;;;;;;10542321;28;20032;-80
2023/03/16 15:25:46;;;;;;;3.80;1.95;;;;;;;;;;10550628;28;20035;-79
2023/03/16 15:30:52;;;;;;;4.43;1.95;;;;;;;;;;10547295;27;20040;-79
2023/03/16 15:35:58;;;;;;;3.50;2.20;;;;;;;;;;10561578;28;20516;-81
2023/03/16 15:41:02;;;;;;;5.63;2.17;;;;;;;;;;10535689;28;20669;-80
2023/03/16 15:46:05;;;;;;;4.10;2.10;;;;;;;;;;10566269;28;20036;-79
2023/03/16 15:51:26;;;;;;;2.28;1.67;;;;;;;;;;10552712;28;20043;-80
2023/03/16 15:56:30;;;;;;;3.08;1.40;;;;;;;;;;10566247;27;20443;-79
2023/03/16 16:01:39;;;;;;;3.53;1.90;;;;;;;;;;10568185;27;20042;-79
2023/03/16 16:06:48;;;;;;;6.25;1.80;;;;;;;;;;10540670;28;20503;-79
2023/03/16 16:11:51;;;;;;;3.65;2.38;;;;;;;;;;10529583;28;20119;-79
2023/03/16 16:16:57;;;;;;;4.22;1.75;;;;;;;;;;10560330;28;20032;-80
2023/03/16 16:22:02;;;;;;;4.30;2.15;;;;;;;;;;10543642;28;20489;-79
2023/03/16 16:27:07;;;;;;;3.38;1.88;;;;;;;;;;10530453;28;20071;-78
2023/03/16 16:32:27;;;;;;;2.38;1.45;;;;;;;;;;10561620;28;20412;-79
2023/03/16 16:37:35;;;;;;;2.38;1.55;;;;;;;;;;10549720;28;20492;-80
2023/03/16 16:42:40;;;;;;;4.03;2.17;;;;;;;;;;10551509;28;20450;-80
2023/03/16 16:47:44;;;;;;;3.40;2.03;;;;;;;;;;10565026;28;20119;-79
2023/03/16 16:52:56;;;;;;;6.20;2.33;;;;;;;;;;10567851;27;20044;-79
2023/03/16 16:58:00;;;;;;;3.22;1.67;;;;;;;;;;10563800;27;20043;-79
2023/03/16 17:03:03;;;;;;;3.92;2.22;;;;;;;;;;10576270;27;20045;-80
2023/03/16 17:08:13;;;;;;;5.25;2.15;;;;;;;;;;10560033;27;20475;-79
2023/03/16 17:13:24;;;;;;;5.30;2.58;;;;;;;;;;10557041;27;20044;-79
2023/03/16 17:18:34;;;;;;;5.07;2.15;;;;;;;;;;10552853;27;20046;-80
2023/03/16 17:23:43;;;;;;;2.33;1.33;;;;;;;;;;10549152;27;20142;-80
2023/03/16 17:28:59;;;;;;;5.82;2.53;;;;;;;;;;10567040;28;20036;-78
2023/03/16 17:34:04;;;;;;;6.95;2.65;;;;;;;;;;10551413;28;20127;-79
2023/03/16 17:39:16;;;;;;;2.33;1.25;;;;;;;;;;10552453;28;20040;-78
2023/03/16 17:44:31;;;;;;;6.78;2.90;;;;;;;;;;10565484;27;20048;-79
2023/03/16 17:49:34;;;;;;;5.43;2.38;;;;;;;;;;10565204;27;20101;-80
2023/03/16 17:54:41;;;;;;;8.50;3.05;;;;;;;;;;10552271;28;20104;-81
2023/03/16 17:59:44;;;;;;;7.65;3.15;;;;;;;;;;10559939;27;20024;-79
2023/03/16 18:04:47;;;;;;;6.90;3.10;;;;;;;;;;10558180;28;20100;-79
2023/03/16 18:09:53;;;;;;;18.98;8.27;;;;;;;;;;10541391;28;20043;-79
2023/03/16 18:14:58;;;;;;;16.73;4.93;;;;;;;;;;10562738;28;20222;-78
2023/03/16 18:20:01;;;;;;;7.03;2.47;;;;;;;;;;10575580;27;20036;-79
2023/03/16 18:25:17;;;;;;;23.40;6.50;;;;;;;;;;10560526;27;20044;-79
2023/03/16 18:30:21;;;;;;;5.95;2.80;;;;;;;;;;10574239;27;20031;-78
2023/03/16 18:35:25;;;;;;;5.57;2.30;;;;;;;;;;10572120;28;20047;-78
2023/03/16 18:40:30;;;;;;;6.95;2.72;;;;;;;;;;10583965;28;20061;-78
2023/03/16 18:45:34;;;;;;;7.75;2.67;;;;;;;;;;10569770;28;20067;-79
2023/03/16 18:50:47;;;;;;;6.68;2.97;;;;;;;;;;10582497;27;20039;-79
2023/03/16 18:55:53;;;;;;;8.80;3.08;;;;;;;;;;10574715;27;20077;-80
2023/03/16 19:01:01;;;;;;;7.88;3.03;;;;;;;;;;10556472;27;20035;-79
2023/03/16 19:06:05;;;;;;;5.55;2.75;;;;;;;;;;10536590;28;20055;-80
2023/03/16 19:11:12;;;;;;;9.20;4.40;;;;;;;;;;10545939;28;20040;-79
2023/03/16 19:16:16;;;;;;;8.50;3.58;;;;;;;;;;10555645;27;20032;-79
2023/03/16 19:21:23;;;;;;;10.00;3.20;;;;;;;;;;10558079;27;20096;-80
2023/03/16 19:26:37;;;;;;;6.90;2.97;;;;;;;;;;10564295;28;20058;-78
2023/03/16 19:31:41;;;;;;;11.57;4.40;;;;;;;;;;10566411;28;20477;-79
2023/03/16 19:36:45;;;;;;;7.38;2.90;;;;;;;;;;10542050;28;20042;-79
2023/03/16 19:41:54;;;;;;;8.27;3.80;;;;;;;;;;10532776;28;20044;-78
2023/03/16 19:46:59;;;;;;;11.68;4.88;;;;;;;;;;10555830;28;20038;-79
2023/03/16 19:52:07;;;;;;;9.40;3.22;;;;;;;;;;10564070;27;20042;-80
2023/03/16 19:57:16;;;;;;;13.15;4.63;;;;;;;;;;10552952;27;20130;-80
2023/03/16 20:02:26;;;;;;;4.18;2.47;;;;;;;;;;10559610;28;20531;-79
2023/03/16 20:07:36;;;;;;;5.72;2.80;;;;;;;;;;10553899;28;20116;-78
2023/03/16 20:12:43;;;;;;;7.28;3.22;;;;;;;;;;10554401;28;20145;-77
2023/03/16 20:17:47;;;;;;;11.57;4.20;;;;;;;;;;10560548;28;20075;-80
2023/03/16 20:22:58;;;;;;;9.23;3.38;;;;;;;;;;10546169;28;20126;-78
2023/03/16 20:28:04;;;;;;;7.28;2.33;;;;;;;;;;10565002;28;20400;-78
2023/03/16 20:33:11;;;;;;;4.95;2.25;;;;;;;;;;10557507;28;20052;-79
2023/03/16 20:38:14;;;;;;;5.70;2.30;;;;;;;;;;10546475;28;20048;-78
2023/03/16 20:43:31;;;;;;;2.15;1.15;;;;;;;;;;10560000;28;20048;-79
2023/03/16 20:48:48;;;;;;;6.70;2.75;;;;;;;;;;10563319;28;20043;-79
2023/03/16 20:53:51;;;;;;;5.65;2.50;;;;;;;;;;10552455;28;20046;-80
2023/03/16 20:58:55;;;;;;;4.05;1.63;;;;;;;;;;10556428;28;20054;-81
2023/03/16 21:04:00;;;;;;;6.22;2.65;;;;;;;;;;10548856;28;20122;-81
2023/03/16 21:09:05;;;;;;;;;;;;;;;;;;10567540;28;20114;-84
2023/03/16 21:14:15;;;;;;;3.50;1.85;;;;;;;;;;10564567;28;19920;-80
2023/03/16 21:19:22;;;;;;;2.08;1.33;;;;;;;;;;10546954;28;20114;-80
2023/03/16 21:24:26;;;;;;;6.97;3.00;;;;;;;;;;10565381;28;20044;-81
2023/03/16 21:29:31;;;;;;;7.63;3.13;;;;;;;;;;10546027;27;20036;-78
2023/03/16 21:34:36;;;;;;;4.38;2.38;;;;;;;;;;10548968;27;20048;-81
2023/03/16 21:39:39;;;;;;;6.00;2.40;;;;;;;;;;10565702;27;20035;-78
2023/03/16 21:44:43;;;;;;;6.60;2.70;;;;;;;;;;10569103;27;20514;-79
2023/03/16 21:49:48;;;;;;;3.97;2.37;;;;;;;;;;10561668;27;20567;-79
2023/03/16 21:54:52;;;;;;;10.30;3.85;;;;;;;;;;10568687;27;20358;-79
2023/03/16 21:59:56;;;;;;;6.15;3.45;;;;;;;;;;10559469;27;20039;-79
2023/03/16 22:05:21;;;;;;;5.70;2.75;;;;;;;;;;10534666;27;20394;-78
2023/03/16 22:10:34;;;;;;;8.50;2.55;;;;;;;;;;10556573;27;20282;-80
2023/03/16 22:15:38;;;;;;;7.28;2.88;;;;;;;;;;10541590;27;20119;-78
2023/03/16 22:20:43;;;;;;;12.45;3.72;;;;;;;;;;10564562;27;20511;-81
2023/03/16 22:25:46;;;;;;;4.15;2.22;;;;;;;;;;10540633;28;20039;-78
2023/03/16 22:30:49;;;;;;;9.63;3.80;;;;;;;;;;10570281;27;20046;-79
2023/03/16 22:35:53;;;;;;;6.30;2.75;;;;;;;;;;10537735;27;20103;-79
2023/03/16 22:40:58;;;;;;;9.68;3.65;;;;;;;;;;10558357;27;20127;-78
2023/03/16 22:46:01;;;;;;;8.68;3.03;;;;;;;;;;10544390;27;20040;-78
2023/03/16 22:51:07;;;;;;;6.10;2.97;;;;;;;;;;10569882;27;20131;-77
2023/03/16 22:56:10;;;;;;;;;;;;;;;;;;10553424;27;20386;-77
2023/03/16 23:01:17;;;;;;;6.25;2.92;;;;;;;;;;10552796;27;19920;-76
2023/03/16 23:06:22;;;;;;;6.85;3.20;;;;;;;;;;10530632;27;20165;-77
2023/03/16 23:11:27;;;;;;;8.85;3.92;;;;;;;;;;10542806;27;20130;-78
2023/03/16 23:16:34;;;;;;;7.88;3.28;;;;;;;;;;10563389;27;20039;-78
2023/03/16 23:21:38;;;;;;;7.32;3.65;;;;;;;;;;10561827;27;20047;-76
2023/03/16 23:26:41;;;;;;;8.90;3.55;;;;;;;;;;10570667;27;20131;-78
2023/03/16 23:31:45;;;;;;;5.33;2.40;;;;;;;;;;10577129;27;20054;-77
2023/03/16 23:36:50;;;;;;;2.20;1.73;;;;;;;;;;10551473;27;20098;-76
2023/03/16 23:41:53;;;;;;;10.47;3.40;;;;;;;;;;10547277;27;20048;-78
2023/03/16 23:46:57;;;;;;;5.53;2.00;;;;;;;;;;10552854;28;20052;-78
2023/03/16 23:52:02;;;;;;;6.20;2.45;;;;;;;;;;10550402;27;20043;-77
2023/03/16 23:57:05;;;;;;;5.28;2.50;;;;;;;;;;10556534;28;20057;-78
